sensor_id;sensor_type;location;lat;lon;timestamp;pressure;altitude;pressure_sealevel;temperature;humidity
84028;BME280;74111;45.650;25.612;2024-02-14T00:01:35;94675.52;;;4.36;72.29
84028;BME280;74111;45.650;25.612;2024-02-14T00:04:06;94678.30;;;4.39;72.21
84028;BME280;74111;45.650;25.612;2024-02-14T00:06:36;94682.27;;;4.38;71.95
84028;BME280;74111;45.650;25.612;2024-02-14T00:09:06;94681.98;;;4.36;71.83
84028;BME280;74111;45.650;25.612;2024-02-14T00:11:36;94682.33;;;4.34;71.93
84028;BME280;74111;45.650;25.612;2024-02-14T00:14:05;94685.34;;;4.31;71.86
84028;BME280;74111;45.650;25.612;2024-02-14T00:16:36;94690.20;;;4.29;72.43
84028;BME280;74111;45.650;25.612;2024-02-14T00:19:07;94692.22;;;4.24;72.77
84028;BME280;74111;45.650;25.612;2024-02-14T00:21:37;94691.17;;;4.24;72.33
84028;BME280;74111;45.650;25.612;2024-02-14T00:24:07;94697.91;;;4.26;72.32
84028;BME280;74111;45.650;25.612;2024-02-14T00:26:37;94695.21;;;4.26;72.32
84028;BME280;74111;45.650;25.612;2024-02-14T00:29:08;94694.48;;;4.24;72.53
84028;BME280;74111;45.650;25.612;2024-02-14T00:31:37;94695.71;;;4.19;72.94
84028;BME280;74111;45.650;25.612;2024-02-14T00:34:06;94694.70;;;4.20;72.83
84028;BME280;74111;45.650;25.612;2024-02-14T00:36:35;94696.82;;;4.23;72.86
84028;BME280;74111;45.650;25.612;2024-02-14T00:39:04;94699.42;;;4.29;72.44
84028;BME280;74111;45.650;25.612;2024-02-14T00:41:35;94700.84;;;4.34;72.35
84028;BME280;74111;45.650;25.612;2024-02-14T00:44:04;94702.10;;;4.36;72.17
84028;BME280;74111;45.650;25.612;2024-02-14T00:46:33;94699.77;;;4.38;72.07
84028;BME280;74111;45.650;25.612;2024-02-14T00:49:03;94696.52;;;4.37;72.36
84028;BME280;74111;45.650;25.612;2024-02-14T00:51:33;94700.75;;;4.30;72.99
84028;BME280;74111;45.650;25.612;2024-02-14T00:54:04;94701.48;;;4.28;72.95
84028;BME280;74111;45.650;25.612;2024-02-14T00:56:34;94701.41;;;4.34;72.67
84028;BME280;74111;45.650;25.612;2024-02-14T00:59:03;94701.57;;;4.35;72.49
84028;BME280;74111;45.650;25.612;2024-02-14T01:01:31;94707.70;;;4.36;72.44
84028;BME280;74111;45.650;25.612;2024-02-14T01:04:01;94708.95;;;4.33;72.53
84028;BME280;74111;45.650;25.612;2024-02-14T01:06:30;94709.09;;;4.25;72.92
84028;BME280;74111;45.650;25.612;2024-02-14T01:09:00;94711.42;;;4.19;73.04
84028;BME280;74111;45.650;25.612;2024-02-14T01:11:30;94711.94;;;4.24;72.55
84028;BME280;74111;45.650;25.612;2024-02-14T01:14:00;94710.55;;;4.27;72.54
84028;BME280;74111;45.650;25.612;2024-02-14T01:16:31;94707.11;;;4.31;72.66
84028;BME280;74111;45.650;25.612;2024-02-14T01:19:00;94710.80;;;4.36;72.31
84028;BME280;74111;45.650;25.612;2024-02-14T01:21:29;94712.11;;;4.36;71.95
84028;BME280;74111;45.650;25.612;2024-02-14T01:23:58;94715.39;;;4.32;72.03
84028;BME280;74111;45.650;25.612;2024-02-14T01:26:27;94715.72;;;4.31;72.12
84028;BME280;74111;45.650;25.612;2024-02-14T01:28:56;94721.11;;;4.29;72.39
84028;BME280;74111;45.650;25.612;2024-02-14T01:31:25;94722.21;;;4.26;72.60
84028;BME280;74111;45.650;25.612;2024-02-14T01:33:56;94723.58;;;4.27;72.66
84028;BME280;74111;45.650;25.612;2024-02-14T01:36:30;94724.84;;;4.30;72.42
84028;BME280;74111;45.650;25.612;2024-02-14T01:38:59;94724.90;;;4.30;72.35
84028;BME280;74111;45.650;25.612;2024-02-14T01:41:28;94725.67;;;4.31;72.11
84028;BME280;74111;45.650;25.612;2024-02-14T01:43:57;94726.26;;;4.28;72.14
84028;BME280;74111;45.650;25.612;2024-02-14T01:46:28;94730.34;;;4.22;72.48
84028;BME280;74111;45.650;25.612;2024-02-14T01:48:58;94735.71;;;4.22;72.49
84028;BME280;74111;45.650;25.612;2024-02-14T01:51:28;94732.08;;;4.23;72.48
84028;BME280;74111;45.650;25.612;2024-02-14T01:53:56;94733.91;;;4.26;72.50
84028;BME280;74111;45.650;25.612;2024-02-14T01:56:27;94735.08;;;4.23;72.88
84028;BME280;74111;45.650;25.612;2024-02-14T01:58:59;94739.94;;;4.22;72.85
84028;BME280;74111;45.650;25.612;2024-02-14T02:01:28;94735.45;;;4.17;73.25
84028;BME280;74111;45.650;25.612;2024-02-14T02:03:58;94739.69;;;4.11;73.50
84028;BME280;74111;45.650;25.612;2024-02-14T02:06:27;94744.33;;;4.05;74.27
84028;BME280;74111;45.650;25.612;2024-02-14T02:08:59;94741.16;;;4.01;74.08
84028;BME280;74111;45.650;25.612;2024-02-14T02:11:30;94743.07;;;4.00;74.04
84028;BME280;74111;45.650;25.612;2024-02-14T02:14:00;94750.19;;;3.98;74.31
84028;BME280;74111;45.650;25.612;2024-02-14T02:16:29;94750.92;;;3.95;74.59
84028;BME280;74111;45.650;25.612;2024-02-14T02:18:58;94753.41;;;3.88;74.98
84028;BME280;74111;45.650;25.612;2024-02-14T02:21:28;94752.02;;;3.90;74.84
84028;BME280;74111;45.650;25.612;2024-02-14T02:23:58;94755.14;;;3.81;75.42
84028;BME280;74111;45.650;25.612;2024-02-14T02:26:27;94750.30;;;3.80;75.43
84028;BME280;74111;45.650;25.612;2024-02-14T02:28:56;94753.05;;;3.81;75.11
84028;BME280;74111;45.650;25.612;2024-02-14T02:31:27;94753.56;;;3.82;75.20
84028;BME280;74111;45.650;25.612;2024-02-14T02:33:57;94754.26;;;3.80;75.07
84028;BME280;74111;45.650;25.612;2024-02-14T02:36:28;94758.10;;;3.86;74.84
84028;BME280;74111;45.650;25.612;2024-02-14T02:38:58;94762.26;;;3.91;74.75
84028;BME280;74111;45.650;25.612;2024-02-14T02:41:29;94763.77;;;3.83;75.34
84028;BME280;74111;45.650;25.612;2024-02-14T02:43:57;94768.21;;;3.80;75.19
84028;BME280;74111;45.650;25.612;2024-02-14T02:46:28;94773.11;;;3.84;75.07
84028;BME280;74111;45.650;25.612;2024-02-14T02:48:58;94769.69;;;3.85;74.45
84028;BME280;74111;45.650;25.612;2024-02-14T02:51:28;94772.84;;;3.88;74.44
84028;BME280;74111;45.650;25.612;2024-02-14T02:53:59;94775.80;;;3.92;74.61
84028;BME280;74111;45.650;25.612;2024-02-14T02:56:29;94774.37;;;3.95;74.20
84028;BME280;74111;45.650;25.612;2024-02-14T02:58:59;94777.80;;;3.97;73.98
84028;BME280;74111;45.650;25.612;2024-02-14T03:01:38;94780.59;;;3.95;74.14
84028;BME280;74111;45.650;25.612;2024-02-14T03:04:09;94782.21;;;3.96;74.07
84028;BME280;74111;45.650;25.612;2024-02-14T03:06:39;94784.27;;;3.88;74.01
84028;BME280;74111;45.650;25.612;2024-02-14T03:09:09;94787.91;;;3.82;74.17
84028;BME280;74111;45.650;25.612;2024-02-14T03:11:38;94791.34;;;3.87;73.82
84028;BME280;74111;45.650;25.612;2024-02-14T03:14:07;94794.70;;;3.90;73.82
84028;BME280;74111;45.650;25.612;2024-02-14T03:16:37;94801.09;;;3.92;73.80
84028;BME280;74111;45.650;25.612;2024-02-14T03:19:08;94802.77;;;3.92;73.69
84028;BME280;74111;45.650;25.612;2024-02-14T03:21:38;94806.84;;;3.92;73.46
84028;BME280;74111;45.650;25.612;2024-02-14T03:24:08;94807.98;;;3.96;73.61
84028;BME280;74111;45.650;25.612;2024-02-14T03:26:40;94809.83;;;3.97;74.21
84028;BME280;74111;45.650;25.612;2024-02-14T03:29:11;94810.41;;;4.02;74.10
84028;BME280;74111;45.650;25.612;2024-02-14T03:31:41;94811.10;;;4.11;74.03
84028;BME280;74111;45.650;25.612;2024-02-14T03:34:13;94817.27;;;4.15;73.72
84028;BME280;74111;45.650;25.612;2024-02-14T03:36:43;94817.84;;;4.13;73.41
84028;BME280;74111;45.650;25.612;2024-02-14T03:39:14;94818.16;;;4.08;73.28
84028;BME280;74111;45.650;25.612;2024-02-14T03:41:46;94823.54;;;4.01;73.21
84028;BME280;74111;45.650;25.612;2024-02-14T03:44:16;94827.86;;;3.98;73.45
84028;BME280;74111;45.650;25.612;2024-02-14T03:46:47;94832.91;;;3.96;73.29
84028;BME280;74111;45.650;25.612;2024-02-14T03:49:17;94835.70;;;3.91;73.61
84028;BME280;74111;45.650;25.612;2024-02-14T03:51:46;94835.97;;;3.93;73.55
84028;BME280;74111;45.650;25.612;2024-02-14T03:54:17;94839.45;;;3.92;73.57
84028;BME280;74111;45.650;25.612;2024-02-14T03:56:49;94842.50;;;3.92;73.58
84028;BME280;74111;45.650;25.612;2024-02-14T03:59:21;94841.60;;;3.91;73.49
84028;BME280;74111;45.650;25.612;2024-02-14T04:01:54;94845.98;;;3.92;73.46
84028;BME280;74111;45.650;25.612;2024-02-14T04:04:23;94850.67;;;3.88;73.77
84028;BME280;74111;45.650;25.612;2024-02-14T04:06:51;94848.98;;;3.85;73.95
84028;BME280;74111;45.650;25.612;2024-02-14T04:09:20;94848.91;;;3.84;74.47
84028;BME280;74111;45.650;25.612;2024-02-14T04:11:49;94852.16;;;3.74;75.10
84028;BME280;74111;45.650;25.612;2024-02-14T04:14:19;94856.63;;;3.64;75.35
84028;BME280;74111;45.650;25.612;2024-02-14T04:16:47;94858.42;;;3.67;75.01
84028;BME280;74111;45.650;25.612;2024-02-14T04:19:17;94856.84;;;3.69;74.96
84028;BME280;74111;45.650;25.612;2024-02-14T04:21:46;94864.32;;;3.67;75.22
84028;BME280;74111;45.650;25.612;2024-02-14T04:24:15;94864.23;;;3.71;75.27
84028;BME280;74111;45.650;25.612;2024-02-14T04:26:44;94864.48;;;3.73;75.18
84028;BME280;74111;45.650;25.612;2024-02-14T04:29:14;94866.13;;;3.74;75.14
84028;BME280;74111;45.650;25.612;2024-02-14T04:31:43;94876.17;;;3.71;75.23
84028;BME280;74111;45.650;25.612;2024-02-14T04:34:12;94878.86;;;3.73;74.79
84028;BME280;74111;45.650;25.612;2024-02-14T04:36:42;94879.30;;;3.76;74.63
84028;BME280;74111;45.650;25.612;2024-02-14T04:39:12;94884.00;;;3.81;74.67
84028;BME280;74111;45.650;25.612;2024-02-14T04:41:42;94882.94;;;3.81;74.94
84028;BME280;74111;45.650;25.612;2024-02-14T04:44:25;94887.42;;;3.82;74.58
84028;BME280;74111;45.650;25.612;2024-02-14T04:46:53;94886.39;;;3.86;74.56
84028;BME280;74111;45.650;25.612;2024-02-14T04:49:26;94883.96;;;3.85;74.67
84028;BME280;74111;45.650;25.612;2024-02-14T04:51:59;94890.38;;;3.85;74.38
84028;BME280;74111;45.650;25.612;2024-02-14T04:54:29;94894.42;;;3.77;74.60
84028;BME280;74111;45.650;25.612;2024-02-14T04:56:57;94898.16;;;3.74;74.55
84028;BME280;74111;45.650;25.612;2024-02-14T04:59:31;94896.83;;;3.72;74.59
84028;BME280;74111;45.650;25.612;2024-02-14T05:02:01;94899.35;;;3.71;74.87
84028;BME280;74111;45.650;25.612;2024-02-14T05:04:30;94898.90;;;3.75;74.85
84028;BME280;74111;45.650;25.612;2024-02-14T05:06:59;94906.19;;;3.83;74.80
84028;BME280;74111;45.650;25.612;2024-02-14T05:09:29;94903.27;;;3.82;75.09
84028;BME280;74111;45.650;25.612;2024-02-14T05:11:58;94909.19;;;3.85;74.81
84028;BME280;74111;45.650;25.612;2024-02-14T05:14:28;94910.54;;;3.75;74.92
84028;BME280;74111;45.650;25.612;2024-02-14T05:17:02;94914.53;;;3.74;74.97
84028;BME280;74111;45.650;25.612;2024-02-14T05:19:32;94914.64;;;3.73;74.97
84028;BME280;74111;45.650;25.612;2024-02-14T05:22:01;94917.98;;;3.70;75.27
84028;BME280;74111;45.650;25.612;2024-02-14T05:24:31;94921.38;;;3.73;74.95
84028;BME280;74111;45.650;25.612;2024-02-14T05:27:01;94924.21;;;3.72;75.19
84028;BME280;74111;45.650;25.612;2024-02-14T05:29:30;94929.73;;;3.70;75.27
84028;BME280;74111;45.650;25.612;2024-02-14T05:32:05;94933.85;;;3.69;75.39
84028;BME280;74111;45.650;25.612;2024-02-14T05:34:35;94939.50;;;3.73;75.64
84028;BME280;74111;45.650;25.612;2024-02-14T05:37:04;94945.16;;;3.80;74.94
84028;BME280;74111;45.650;25.612;2024-02-14T05:39:34;94945.64;;;3.85;74.82
84028;BME280;74111;45.650;25.612;2024-02-14T05:42:04;94944.14;;;3.92;74.63
84028;BME280;74111;45.650;25.612;2024-02-14T05:44:34;94946.69;;;3.98;74.59
84028;BME280;74111;45.650;25.612;2024-02-14T05:47:03;94950.33;;;4.03;74.46
84028;BME280;74111;45.650;25.612;2024-02-14T05:49:32;94956.09;;;4.09;74.98
84028;BME280;74111;45.650;25.612;2024-02-14T05:52:01;94963.80;;;4.17;74.95
84028;BME280;74111;45.650;25.612;2024-02-14T05:54:31;94959.69;;;4.21;74.16
84028;BME280;74111;45.650;25.612;2024-02-14T05:57:00;94961.23;;;4.23;73.85
84028;BME280;74111;45.650;25.612;2024-02-14T05:59:31;94967.92;;;4.21;73.42
84028;BME280;74111;45.650;25.612;2024-02-14T06:02:01;94970.65;;;4.14;73.31
84028;BME280;74111;45.650;25.612;2024-02-14T06:04:31;94969.63;;;4.09;73.47
84028;BME280;74111;45.650;25.612;2024-02-14T06:07:00;94971.83;;;4.04;73.66
84028;BME280;74111;45.650;25.612;2024-02-14T06:09:30;94973.88;;;3.98;73.97
84028;BME280;74111;45.650;25.612;2024-02-14T06:11:58;94977.83;;;3.98;73.98
84028;BME280;74111;45.650;25.612;2024-02-14T06:14:27;94982.66;;;3.96;74.17
84028;BME280;74111;45.650;25.612;2024-02-14T06:17:00;94986.02;;;3.90;74.27
84028;BME280;74111;45.650;25.612;2024-02-14T06:19:30;94986.09;;;3.94;74.24
84028;BME280;74111;45.650;25.612;2024-02-14T06:22:01;94985.99;;;3.98;74.14
84028;BME280;74111;45.650;25.612;2024-02-14T06:24:30;94990.21;;;3.97;74.16
84028;BME280;74111;45.650;25.612;2024-02-14T06:26:59;94996.67;;;3.97;74.03
84028;BME280;74111;45.650;25.612;2024-02-14T06:29:28;94998.54;;;3.98;73.85
84028;BME280;74111;45.650;25.612;2024-02-14T06:31:58;95007.23;;;4.00;73.74
84028;BME280;74111;45.650;25.612;2024-02-14T06:34:27;95010.74;;;3.93;73.70
84028;BME280;74111;45.650;25.612;2024-02-14T06:36:58;95011.96;;;3.94;73.70
84028;BME280;74111;45.650;25.612;2024-02-14T06:39:27;95018.23;;;3.93;74.25
84028;BME280;74111;45.650;25.612;2024-02-14T06:41:56;95023.66;;;3.94;74.15
84028;BME280;74111;45.650;25.612;2024-02-14T06:44:29;95022.29;;;3.92;74.61
84028;BME280;74111;45.650;25.612;2024-02-14T06:47:01;95023.39;;;3.95;74.69
84028;BME280;74111;45.650;25.612;2024-02-14T06:49:30;95026.81;;;3.94;74.60
84028;BME280;74111;45.650;25.612;2024-02-14T06:52:00;95026.14;;;3.95;74.29
84028;BME280;74111;45.650;25.612;2024-02-14T06:54:30;95030.03;;;3.92;74.20
84028;BME280;74111;45.650;25.612;2024-02-14T06:56:59;95025.97;;;3.92;74.55
84028;BME280;74111;45.650;25.612;2024-02-14T06:59:28;95026.19;;;3.98;75.14
84028;BME280;74111;45.650;25.612;2024-02-14T07:01:58;95026.34;;;4.06;74.90
84028;BME280;74111;45.650;25.612;2024-02-14T07:04:41;95028.40;;;4.11;74.28
84028;BME280;74111;45.650;25.612;2024-02-14T07:07:10;95028.27;;;4.18;74.00
84028;BME280;74111;45.650;25.612;2024-02-14T07:09:40;95032.61;;;4.25;73.77
84028;BME280;74111;45.650;25.612;2024-02-14T07:12:09;95028.36;;;4.30;73.32
84028;BME280;74111;45.650;25.612;2024-02-14T07:14:38;95032.16;;;4.34;73.17
84028;BME280;74111;45.650;25.612;2024-02-14T07:17:09;95036.60;;;4.38;72.85
84028;BME280;74111;45.650;25.612;2024-02-14T07:19:46;95038.07;;;4.40;72.36
84028;BME280;74111;45.650;25.612;2024-02-14T07:22:18;95042.73;;;4.41;71.95
84028;BME280;74111;45.650;25.612;2024-02-14T07:24:50;95046.20;;;4.40;71.71
84028;BME280;74111;45.650;25.612;2024-02-14T07:27:22;95049.95;;;4.40;71.45
84028;BME280;74111;45.650;25.612;2024-02-14T07:29:52;95054.80;;;4.46;71.79
84028;BME280;74111;45.650;25.612;2024-02-14T07:32:21;95056.75;;;4.45;70.74
84028;BME280;74111;45.650;25.612;2024-02-14T07:34:51;95054.02;;;4.47;70.72
84028;BME280;74111;45.650;25.612;2024-02-14T07:37:20;95057.46;;;4.51;70.77
84028;BME280;74111;45.650;25.612;2024-02-14T07:39:48;95057.84;;;4.53;71.01
84028;BME280;74111;45.650;25.612;2024-02-14T07:42:17;95055.58;;;4.54;70.39
84028;BME280;74111;45.650;25.612;2024-02-14T07:44:46;95060.67;;;4.50;69.96
84028;BME280;74111;45.650;25.612;2024-02-14T07:47:16;95062.67;;;4.43;69.32
84028;BME280;74111;45.650;25.612;2024-02-14T07:49:46;95065.48;;;4.37;69.57
84028;BME280;74111;45.650;25.612;2024-02-14T07:52:14;95063.86;;;4.37;69.90
84028;BME280;74111;45.650;25.612;2024-02-14T07:54:43;95069.80;;;4.32;70.11
84028;BME280;74111;45.650;25.612;2024-02-14T07:57:11;95065.88;;;4.40;70.61
84028;BME280;74111;45.650;25.612;2024-02-14T07:59:41;95067.84;;;4.47;70.51
84028;BME280;74111;45.650;25.612;2024-02-14T08:02:10;95067.05;;;4.52;69.99
84028;BME280;74111;45.650;25.612;2024-02-14T08:04:40;95069.59;;;4.52;69.69
84028;BME280;74111;45.650;25.612;2024-02-14T08:07:10;95068.96;;;4.52;69.94
84028;BME280;74111;45.650;25.612;2024-02-14T08:09:39;95071.13;;;4.57;69.83
84028;BME280;74111;45.650;25.612;2024-02-14T08:12:09;95071.84;;;4.66;70.33
84028;BME280;74111;45.650;25.612;2024-02-14T08:14:40;95076.54;;;4.70;69.33
84028;BME280;74111;45.650;25.612;2024-02-14T08:17:09;95081.18;;;4.69;68.95
84028;BME280;74111;45.650;25.612;2024-02-14T08:19:40;95079.86;;;4.71;69.43
84028;BME280;74111;45.650;25.612;2024-02-14T08:22:09;95088.25;;;4.69;68.97
84028;BME280;74111;45.650;25.612;2024-02-14T08:24:38;95090.47;;;4.67;68.84
84028;BME280;74111;45.650;25.612;2024-02-14T08:27:07;95089.46;;;4.67;68.87
84028;BME280;74111;45.650;25.612;2024-02-14T08:29:37;95095.37;;;4.66;68.81
84028;BME280;74111;45.650;25.612;2024-02-14T08:32:06;95095.41;;;4.65;68.93
84028;BME280;74111;45.650;25.612;2024-02-14T08:34:35;95098.94;;;4.59;68.79
84028;BME280;74111;45.650;25.612;2024-02-14T08:37:04;95104.10;;;4.38;68.79
84028;BME280;74111;45.650;25.612;2024-02-14T08:39:33;95105.94;;;4.39;69.27
84028;BME280;74111;45.650;25.612;2024-02-14T08:42:03;95107.22;;;4.28;69.51
84028;BME280;74111;45.650;25.612;2024-02-14T08:44:36;95109.38;;;4.27;69.74
84028;BME280;74111;45.650;25.612;2024-02-14T08:47:06;95107.84;;;4.24;70.03
84028;BME280;74111;45.650;25.612;2024-02-14T08:49:36;95112.56;;;4.30;69.93
84028;BME280;74111;45.650;25.612;2024-02-14T08:52:09;95113.80;;;4.27;69.41
84028;BME280;74111;45.650;25.612;2024-02-14T08:54:41;95120.67;;;4.29;69.65
84028;BME280;74111;45.650;25.612;2024-02-14T08:57:10;95121.63;;;4.32;69.96
84028;BME280;74111;45.650;25.612;2024-02-14T08:59:39;95120.07;;;4.23;69.71
84028;BME280;74111;45.650;25.612;2024-02-14T09:02:12;95121.84;;;4.20;70.13
84028;BME280;74111;45.650;25.612;2024-02-14T09:04:42;95126.61;;;4.24;69.90
84028;BME280;74111;45.650;25.612;2024-02-14T09:07:13;95125.04;;;4.28;69.92
84028;BME280;74111;45.650;25.612;2024-02-14T09:09:43;95127.12;;;4.34;69.63
84028;BME280;74111;45.650;25.612;2024-02-14T09:12:13;95129.02;;;4.34;69.56
84028;BME280;74111;45.650;25.612;2024-02-14T09:14:41;95130.51;;;4.38;69.56
84028;BME280;74111;45.650;25.612;2024-02-14T09:17:11;95128.40;;;4.35;69.41
84028;BME280;74111;45.650;25.612;2024-02-14T09:19:40;95128.83;;;4.40;69.58
84028;BME280;74111;45.650;25.612;2024-02-14T09:22:09;95132.44;;;4.42;69.40
84028;BME280;74111;45.650;25.612;2024-02-14T09:24:38;95136.09;;;4.48;69.78
84028;BME280;74111;45.650;25.612;2024-02-14T09:27:08;95139.04;;;4.46;68.99
84028;BME280;74111;45.650;25.612;2024-02-14T09:29:39;95140.38;;;4.38;68.81
84028;BME280;74111;45.650;25.612;2024-02-14T09:32:08;95140.38;;;4.39;68.93
84028;BME280;74111;45.650;25.612;2024-02-14T09:34:37;95138.46;;;4.35;69.07
84028;BME280;74111;45.650;25.612;2024-02-14T09:37:08;95138.71;;;4.31;68.98
84028;BME280;74111;45.650;25.612;2024-02-14T09:39:38;95141.78;;;4.32;69.14
84028;BME280;74111;45.650;25.612;2024-02-14T09:42:13;95140.35;;;4.33;69.35
84028;BME280;74111;45.650;25.612;2024-02-14T09:44:43;95143.17;;;4.37;69.37
84028;BME280;74111;45.650;25.612;2024-02-14T09:47:15;95145.52;;;4.34;68.89
84028;BME280;74111;45.650;25.612;2024-02-14T09:49:45;95145.88;;;4.20;68.85
84028;BME280;74111;45.650;25.612;2024-02-14T09:52:14;95147.52;;;4.19;69.12
84028;BME280;74111;45.650;25.612;2024-02-14T09:54:45;95143.73;;;4.12;69.22
84028;BME280;74111;45.650;25.612;2024-02-14T09:57:14;95147.51;;;4.17;69.49
